Terminal Aerodrome Forecast
Issued by NWS Grand Forks, ND

Home | Current Version | Previous Version | Text Only | Print | Product List | Glossary On
Versions: 1 2 3 4 5 6 7 8 9 10 11 12 13
981
FTUS43 KFGF 221128
TAFGFK
TAF
KGFK 221128Z 2212/2312 24012KT P6SM SKC
     FM221500 23013G23KT P6SM SKC
     FM221800 21015G25KT P6SM SCT080 BKN200
     FM230000 23013KT P6SM SCT030 BKN050=

USA.gov is the U.S. government's official web portal to all federal, state and local government web resources and services.